KTOI/TOI METAR and TAF weather

Enter ICAO airport designator
Station Type Date Time Source
KTOI METAR 2022/01/18 06:53 UTC NOAA

KTOI 180653Z AUTO 00000KT 10SM CLR M01/M04 A3015 RMK AO2 SLP212 T10111039


Station Type Date Time Source
KTOI Decoded METAR 2022/01/18 06:53 UTC NOAA

TROY MUNICIPAL AIRPORT, AL, United States (KTOI) 31-52N 086-01W 118M
Jan 18, 2022 - 01:53 AM EST / 2022.01.18 0653 UTC
Wind: Calm:0
Visibility: 10 mile(s):0
Sky conditions: clear
Temperature: 30.0 F (-1.1 C)
Dew Point: 25.0 F (-3.9 C)
Relative Humidity: 81%
Pressure (altimeter): 30.15 in. Hg (1020 hPa)
ob: KTOI 180653Z AUTO 00000KT 10SM CLR M01/M04 A3015 RMK AO2 SLP212 T10111039
cycle: 7

Station Type Date Time Source
KTOI TAF 2022/01/18 06:22 UTC NOAA

TAF KTOI 180520Z 1806/1906 33003KT P6SM SKC
FM181600 20007KT P6SM FEW250
FM190000 00000KT P6SM BKN250

Example: see airport list